createdAt,value
2022-09-28T00:01:00.555Z,10.88
2022-09-28T00:04:17.442Z,10.89
2022-09-28T00:07:34.025Z,10.93
2022-09-28T00:10:50.077Z,10.92
2022-09-28T00:14:08.901Z,10.90
2022-09-28T00:17:26.615Z,10.84
2022-09-28T00:20:43.192Z,10.79
2022-09-28T00:24:18.587Z,10.73
2022-09-28T00:27:34.587Z,10.65
2022-09-28T00:30:50.582Z,10.59
2022-09-28T00:34:07.757Z,10.56
2022-09-28T00:37:24.578Z,10.49
2022-09-28T00:40:41.434Z,10.44
2022-09-28T00:43:57.600Z,10.38
2022-09-28T00:50:34.785Z,10.36
2022-09-28T00:53:52.104Z,10.39
2022-09-28T00:57:10.734Z,10.43
2022-09-28T01:00:29.945Z,10.43
2022-09-28T01:03:46.107Z,10.43
2022-09-28T01:07:03.575Z,10.38
2022-09-28T01:10:19.985Z,10.34
2022-09-28T01:13:38.447Z,10.35
2022-09-28T01:17:01.023Z,10.32
2022-09-28T01:20:52.081Z,10.34
2022-09-28T01:24:36.030Z,10.33
2022-09-28T01:27:56.284Z,10.33
2022-09-28T01:34:41.061Z,10.30
2022-09-28T01:38:01.702Z,10.30
2022-09-28T01:41:19.629Z,10.28
2022-09-28T01:44:40.663Z,10.27
2022-09-28T01:51:17.558Z,10.34
2022-09-28T01:54:38.390Z,10.36
2022-09-28T01:57:58.591Z,10.38
2022-09-28T02:01:19.666Z,10.38
2022-09-28T02:04:41.585Z,10.42
2022-09-28T02:08:01.879Z,10.44
2022-09-28T02:11:22.538Z,10.44
2022-09-28T02:14:41.718Z,10.47
2022-09-28T02:17:58.344Z,10.48
2022-09-28T02:21:21.120Z,10.55
2022-09-28T02:24:43.827Z,10.56
2022-09-28T02:28:05.775Z,10.51
2022-09-28T02:31:22.043Z,10.56
2022-09-28T02:34:38.244Z,10.56
2022-09-28T02:37:55.640Z,10.55
2022-09-28T02:41:20.146Z,10.50
2022-09-28T02:44:51.411Z,10.46
2022-09-28T02:48:19.136Z,10.38
2022-09-28T02:51:41.092Z,10.28
2022-09-28T02:55:23.649Z,10.17
2022-09-28T02:58:48.728Z,10.07
2022-09-28T03:02:09.480Z,9.98
2022-09-28T03:05:31.348Z,9.90
2022-09-28T03:08:52.776Z,9.87
2022-09-28T03:12:15.218Z,9.80
2022-09-28T03:15:35.099Z,9.76
2022-09-28T03:18:49.113Z,9.65
2022-09-28T03:22:06.377Z,9.50
2022-09-28T03:25:22.819Z,9.40
2022-09-28T03:28:39.048Z,9.31
2022-09-28T03:31:55.967Z,9.22
2022-09-28T03:35:13.782Z,9.12
2022-09-28T03:38:30.439Z,9.08
2022-09-28T03:41:49.488Z,9.08
2022-09-28T03:45:06.119Z,9.02
2022-09-28T03:48:25.781Z,8.97
2022-09-28T03:51:40.127Z,8.94
2022-09-28T03:54:57.321Z,8.93
2022-09-28T03:58:13.393Z,8.90
2022-09-28T04:07:09.467Z,8.67
2022-09-28T04:10:25.874Z,8.60
2022-09-28T04:13:42.383Z,8.60
2022-09-28T04:20:18.556Z,8.38
2022-09-28T04:23:37.743Z,8.34
2022-09-28T04:26:55.843Z,8.28
2022-09-28T04:30:13.119Z,8.24
2022-09-28T04:33:30.743Z,8.19
2022-09-28T04:36:46.831Z,8.16
2022-09-28T04:40:03.050Z,8.15
2022-09-28T04:43:20.269Z,8.09
2022-09-28T04:46:44.167Z,8.10
2022-09-28T04:50:19.056Z,8.08
2022-09-28T04:53:42.942Z,8.03
2022-09-28T04:56:59.297Z,7.99
2022-09-28T05:00:19.062Z,8.03
2022-09-28T05:03:37.024Z,8.10
2022-09-28T05:06:54.840Z,8.20
2022-09-28T05:10:13.216Z,8.24
2022-09-28T05:13:29.505Z,8.30
2022-09-28T05:16:45.701Z,8.35
2022-09-28T05:20:06.945Z,8.45
2022-09-28T05:23:23.446Z,8.56
2022-09-28T05:26:41.222Z,8.70
2022-09-28T05:29:58.568Z,8.73
2022-09-28T05:33:14.962Z,8.75
2022-09-28T05:36:33.388Z,8.73
2022-09-28T05:39:49.902Z,8.78
2022-09-28T05:43:10.277Z,8.88
2022-09-28T05:46:27.142Z,8.91
2022-09-28T05:53:09.294Z,9.09
2022-09-28T05:56:26.029Z,9.16
2022-09-28T05:59:42.272Z,9.26
2022-09-28T06:03:09.682Z,9.33
2022-09-28T06:06:25.919Z,9.45
2022-09-28T06:09:42.761Z,9.61
2022-09-28T06:13:05.254Z,9.66
2022-09-28T06:16:25.493Z,9.73
2022-09-28T06:19:42.037Z,9.78
2022-09-28T06:23:15.597Z,9.89
2022-09-28T06:26:31.789Z,9.94
2022-09-28T06:29:47.967Z,9.96
2022-09-28T06:36:20.121Z,11.44
2022-09-28T06:39:38.047Z,11.30
2022-09-28T06:43:01.980Z,11.92
2022-09-28T06:46:20.076Z,12.78
2022-09-28T06:52:57.954Z,14.53
2022-09-28T06:56:33.032Z,14.88
2022-09-28T06:59:50.836Z,15.04
2022-09-28T07:03:07.073Z,15.33
2022-09-28T07:06:29.629Z,15.76
2022-09-28T07:09:55.242Z,16.11
2022-09-28T07:13:40.873Z,16.24
2022-09-28T07:16:58.306Z,16.18
2022-09-28T07:19:53.361Z,16.96
2022-09-28T07:23:19.573Z,16.85
2022-09-28T07:26:38.322Z,17.62
2022-09-28T07:30:03.528Z,17.90
2022-09-28T07:36:40.137Z,17.94
2022-09-28T07:40:10.526Z,17.76
2022-09-28T07:43:28.034Z,17.89
2022-09-28T07:46:44.986Z,17.54
2022-09-28T07:50:06.911Z,17.10
2022-09-28T07:53:37.129Z,16.35
2022-09-28T07:56:57.643Z,15.76
2022-09-28T08:00:15.591Z,15.44
2022-09-28T08:03:43.733Z,14.65
2022-09-28T08:07:00.555Z,14.54
2022-09-28T08:10:19.189Z,14.26
2022-09-28T08:13:39.539Z,14.14
2022-09-28T08:17:06.524Z,14.02
2022-09-28T08:20:46.994Z,13.80
2022-09-28T08:24:04.019Z,13.78
2022-09-28T08:27:21.230Z,14.02
2022-09-28T08:30:37.678Z,14.14
2022-09-28T08:37:27.581Z,14.38
2022-09-28T08:41:11.130Z,14.66
2022-09-28T08:44:50.765Z,14.90
2022-09-28T08:48:28.556Z,15.12
2022-09-28T09:26:24.709Z,15.11
2022-09-28T09:29:53.711Z,15.22
2022-09-28T09:33:43.949Z,15.32
2022-09-28T09:37:18.704Z,15.36
2022-09-28T09:40:53.553Z,15.87
2022-09-28T09:44:52.836Z,16.12
2022-09-28T09:48:19.750Z,16.18
2022-09-28T09:51:41.891Z,16.53
2022-09-28T09:55:03.415Z,16.32
2022-09-28T09:58:25.911Z,16.21
2022-09-28T10:01:46.807Z,16.30
2022-09-28T10:08:29.334Z,16.76
2022-09-28T10:11:52.881Z,16.85
2022-09-28T10:15:14.732Z,17.05
2022-09-28T10:18:33.068Z,17.22
2022-09-28T10:21:53.842Z,17.58
2022-09-28T10:25:13.894Z,17.72
2022-09-28T10:28:40.439Z,17.86
2022-09-28T10:31:59.011Z,18.08
2022-09-28T10:35:33.075Z,18.27
2022-09-28T10:38:55.166Z,18.17
2022-09-28T10:42:18.338Z,17.66
2022-09-28T10:45:39.483Z,17.52
2022-09-28T10:49:04.097Z,17.63
2022-09-28T10:52:47.102Z,17.75
2022-09-28T10:56:16.773Z,17.22
2022-09-28T10:59:49.687Z,16.89
2022-09-28T11:03:11.537Z,16.60
2022-09-28T11:06:36.944Z,16.40
2022-09-28T11:09:57.053Z,16.32
2022-09-28T11:13:18.352Z,16.44
2022-09-28T11:16:38.877Z,16.08
2022-09-28T11:19:53.290Z,15.93
2022-09-28T11:23:24.916Z,15.99
2022-09-28T11:26:49.192Z,15.93
2022-09-28T11:30:12.626Z,15.95
2022-09-28T11:40:10.825Z,15.93
2022-09-28T11:43:35.188Z,15.81
2022-09-28T11:46:58.093Z,15.82
2022-09-28T11:50:24.862Z,15.91
2022-09-28T11:53:44.885Z,16.03
2022-09-28T11:57:01.584Z,16.11
2022-09-28T12:00:24.358Z,16.07
2022-09-28T12:03:47.811Z,16.12
2022-09-28T12:07:09.318Z,16.14
2022-09-28T12:10:32.732Z,16.16
2022-09-28T12:13:53.093Z,16.17
2022-09-28T12:17:19.252Z,16.27
2022-09-28T12:20:36.594Z,16.30
2022-09-28T12:23:54.622Z,16.33
2022-09-28T12:27:17.395Z,16.28
2022-09-28T12:30:36.654Z,16.27
2022-09-28T12:33:56.864Z,16.31
2022-09-28T12:37:37.797Z,16.30
2022-09-28T12:41:01.978Z,16.32
2022-09-28T12:44:42.560Z,16.33
2022-09-28T12:48:40.289Z,16.35
2022-09-28T12:52:02.226Z,16.34
2022-09-28T12:55:44.682Z,16.33
2022-09-28T12:59:12.078Z,16.29
2022-09-28T13:02:46.960Z,16.32
2022-09-28T13:06:37.911Z,16.31
2022-09-28T13:10:03.600Z,16.32
2022-09-28T13:13:37.458Z,16.15
2022-09-28T13:17:00.626Z,16.12
2022-09-28T13:20:31.031Z,16.10
2022-09-28T13:23:50.597Z,16.03
2022-09-28T13:27:11.920Z,15.97
2022-09-28T13:30:28.480Z,15.91
2022-09-28T13:37:29.012Z,15.92
2022-09-28T13:41:18.859Z,15.93
2022-09-28T13:45:21.046Z,15.92
2022-09-28T13:52:08.150Z,15.91
2022-09-28T13:55:33.722Z,15.87
2022-09-28T13:58:53.640Z,15.80
2022-09-28T14:02:18.673Z,15.87
2022-09-28T14:09:50.671Z,15.74
2022-09-28T14:13:08.781Z,15.68
2022-09-28T14:16:35.803Z,15.64
2022-09-28T14:19:55.165Z,15.55
2022-09-28T14:23:46.704Z,15.42
2022-09-28T14:27:42.547Z,15.30
2022-09-28T14:31:02.132Z,15.26
2022-09-28T14:37:52.893Z,15.16
2022-09-28T14:41:15.927Z,15.01
2022-09-28T14:44:32.605Z,15.02
2022-09-28T14:47:53.184Z,14.99
2022-09-28T14:51:42.720Z,15.04
2022-09-28T14:55:05.114Z,15.07
2022-09-28T14:58:28.256Z,15.04
2022-09-28T15:01:46.875Z,15.01
2022-09-28T15:05:08.525Z,15.01
2022-09-28T15:08:29.066Z,15.02
2022-09-28T15:11:47.672Z,15.00
2022-09-28T15:15:09.198Z,14.98
2022-09-28T15:19:08.577Z,14.97
2022-09-28T15:22:26.885Z,14.96
2022-09-28T15:25:45.347Z,14.91
2022-09-28T15:29:03.980Z,14.81
2022-09-28T15:32:34.963Z,14.77
2022-09-28T15:35:53.930Z,14.82
2022-09-28T15:39:16.600Z,14.88
2022-09-28T15:42:33.035Z,14.91
2022-09-28T15:45:53.036Z,14.91
2022-09-28T15:52:44.920Z,14.90
2022-09-28T15:56:09.249Z,14.98
2022-09-28T15:59:36.456Z,14.97
2022-09-28T16:03:09.586Z,14.97
2022-09-28T16:06:26.583Z,14.99
2022-09-28T16:09:47.928Z,15.03
2022-09-28T16:13:17.627Z,15.03
2022-09-28T16:16:46.259Z,15.06
2022-09-28T16:20:01.805Z,15.08
2022-09-28T16:23:34.188Z,15.04
2022-09-28T16:26:50.788Z,15.08
2022-09-28T16:30:26.884Z,15.03
2022-09-28T16:38:56.144Z,15.01
2022-09-28T16:42:19.292Z,14.98
2022-09-28T16:45:36.138Z,14.99
2022-09-28T16:48:57.430Z,15.02
2022-09-28T16:52:19.041Z,15.06
2022-09-28T16:55:40.708Z,15.04
2022-09-28T16:58:56.055Z,15.02
2022-09-28T17:02:44.967Z,15.01
2022-09-28T17:05:49.335Z,14.97
2022-09-28T17:09:08.042Z,15.00
2022-09-28T17:12:29.949Z,14.96
2022-09-28T17:15:48.006Z,14.98
2022-09-28T17:22:20.252Z,14.98
2022-09-28T17:25:37.209Z,14.96
2022-09-28T17:28:54.457Z,14.88
2022-09-28T17:32:14.650Z,14.88
2022-09-28T17:35:31.128Z,14.88
2022-09-28T17:38:47.960Z,14.90
2022-09-28T17:42:06.035Z,14.91
2022-09-28T17:45:23.803Z,14.89
2022-09-28T17:48:39.968Z,14.85
2022-09-28T17:51:56.083Z,14.87
2022-09-28T17:55:13.466Z,14.84
2022-09-28T17:58:30.882Z,14.85
2022-09-28T18:01:49.544Z,14.81
2022-09-28T18:05:05.936Z,14.82
2022-09-28T18:08:27.018Z,14.81
2022-09-28T18:11:46.295Z,14.78
2022-09-28T18:15:04.642Z,14.80
2022-09-28T18:18:23.464Z,14.69
2022-09-28T18:24:58.002Z,14.67
2022-09-28T18:28:14.158Z,14.64
2022-09-28T18:31:32.144Z,14.66
2022-09-28T18:34:48.891Z,14.62
2022-09-28T18:38:06.216Z,14.66
2022-09-28T18:41:24.157Z,14.61
2022-09-28T18:44:41.137Z,14.57
2022-09-28T18:47:57.733Z,14.58
2022-09-28T18:51:18.049Z,14.55
2022-09-28T18:54:34.443Z,14.56
2022-09-28T18:57:50.644Z,14.55
2022-09-28T19:01:28.541Z,14.56
2022-09-28T19:04:27.610Z,14.51
2022-09-28T19:07:45.733Z,14.49
2022-09-28T19:11:12.687Z,14.45
2022-09-28T19:14:29.416Z,14.47
2022-09-28T19:17:47.610Z,14.43
2022-09-28T19:24:22.343Z,14.36
2022-09-28T19:27:38.661Z,14.34
2022-09-28T19:37:36.262Z,14.23
2022-09-28T19:40:53.047Z,14.24
2022-09-28T19:44:14.400Z,14.20
2022-09-28T19:47:30.379Z,14.15
2022-09-28T19:50:47.146Z,14.14
2022-09-28T19:54:03.168Z,14.13
2022-09-28T19:57:20.691Z,14.05
2022-09-28T20:00:37.385Z,13.98
2022-09-28T20:03:53.825Z,13.94
2022-09-28T20:07:10.355Z,13.92
2022-09-28T20:10:26.541Z,13.86
2022-09-28T20:13:44.833Z,13.71
2022-09-28T20:17:01.055Z,13.61
2022-09-28T20:20:20.013Z,13.54
2022-09-28T20:23:37.054Z,13.45
2022-09-28T20:26:54.068Z,13.38
2022-09-28T20:30:11.842Z,13.36
2022-09-28T20:33:29.051Z,13.28
2022-09-28T20:36:45.519Z,13.20
2022-09-28T20:40:01.764Z,13.10
2022-09-28T20:43:18.668Z,13.08
2022-09-28T20:46:35.626Z,13.10
2022-09-28T20:53:08.487Z,13.06
2022-09-28T20:56:27.802Z,13.05
2022-09-28T20:59:44.026Z,13.01
2022-09-28T21:03:02.720Z,12.96
2022-09-28T21:06:19.554Z,12.90
2022-09-28T21:09:35.656Z,12.78
2022-09-28T21:12:54.033Z,12.71
2022-09-28T21:16:13.434Z,12.71
2022-09-28T21:19:30.940Z,12.61
2022-09-28T21:22:46.957Z,12.60
2022-09-28T21:26:22.594Z,12.60
2022-09-28T21:29:40.044Z,12.58
2022-09-28T21:32:56.082Z,12.55
2022-09-28T21:39:28.522Z,12.56
2022-09-28T21:42:44.684Z,12.55
2022-09-28T21:46:02.360Z,12.64
2022-09-28T21:49:20.029Z,12.59
2022-09-28T21:53:37.477Z,12.53
2022-09-28T21:56:53.529Z,12.48
2022-09-28T22:00:10.036Z,12.44
2022-09-28T22:03:25.969Z,12.48
2022-09-28T22:06:41.989Z,12.49
2022-09-28T22:10:00.390Z,12.51
2022-09-28T22:13:16.555Z,12.52
2022-09-28T22:16:35.857Z,12.56
2022-09-28T22:19:49.513Z,12.58
2022-09-28T22:23:05.283Z,12.58
2022-09-28T22:26:25.511Z,12.56
2022-09-28T22:29:41.531Z,12.55
2022-09-28T22:32:57.630Z,12.55
2022-09-28T22:39:29.209Z,12.42
2022-09-28T22:42:46.797Z,12.51
2022-09-28T22:46:10.916Z,12.51
2022-09-28T22:49:27.092Z,12.51
2022-09-28T22:52:43.049Z,12.47
2022-09-28T22:55:59.160Z,12.47
2022-09-28T22:59:15.450Z,12.48
2022-09-28T23:02:31.508Z,12.46
2022-09-28T23:05:48.138Z,12.41
2022-09-28T23:09:05.007Z,12.36
2022-09-28T23:12:20.932Z,12.27
2022-09-28T23:15:36.862Z,12.25
2022-09-28T23:18:54.053Z,12.18
2022-09-28T23:22:10.052Z,12.22
2022-09-28T23:25:26.486Z,12.25
2022-09-28T23:28:42.499Z,12.19
2022-09-28T23:32:00.963Z,12.15
2022-09-28T23:35:18.435Z,12.19
2022-09-28T23:38:34.571Z,12.23
2022-09-28T23:41:51.128Z,12.24
2022-09-28T23:45:07.595Z,12.19
2022-09-28T23:48:23.884Z,12.18
2022-09-28T23:51:39.897Z,12.16
2022-09-28T23:54:55.891Z,12.12
2022-09-28T23:58:11.933Z,12.07
